EDDT/TXL METAR and TAF weather

Enter ICAO airport designator
Station Type Date Time Source
EDDT METAR 2019/06/26 21:50 UTC NOAA

EDDT 262150Z 31010KT 260V350 CAVOK 24/16 Q1021


Station Type Date Time Source
EDDT Decoded METAR 2019/06/26 21:50 UTC NOAA

Berlin-Tegel, Germany (EDDT) 52-34N 013-19E 37M
Jun 26, 2019 - 05:50 PM EDT / 2019.06.26 2150 UTC
Wind: from the NW (310 degrees) at 12 MPH (10 KT) (direction variable):0
Visibility: greater than 7 mile(s):0
Temperature: 75 F (24 C)
Dew Point: 60 F (16 C)
Relative Humidity: 60%
Pressure (altimeter): 30.15 in. Hg (1021 hPa)
ob: EDDT 262150Z 31010KT 260V350 CAVOK 24/16 Q1021
cycle: 22

Station Type Date Time Source
EDDT TAF 2019/06/26 18:27 UTC NOAA

TAF EDDT 261700Z 2618/2718 30013G23KT CAVOK
BECMG 2618/2621 30007KT
BECMG 2705/2709 30012KT PROB30
TEMPO 2709/2718 30015G25KT

Example: see airport list